createdAt,value
2022-09-23T00:01:25.982Z,1260.70
2022-09-23T00:03:56.313Z,1246.90
2022-09-23T00:06:24.690Z,1246.95
2022-09-23T00:08:52.435Z,1243.53
2022-09-23T00:11:27.707Z,1252.57
2022-09-23T00:13:59.664Z,1246.90
2022-09-23T00:16:34.050Z,1248.47
2022-09-23T00:19:03.192Z,1254.47
2022-09-23T00:21:31.562Z,1248.10
2022-09-23T00:23:58.818Z,1241.68
2022-09-23T00:26:30.361Z,1243.07
2022-09-23T00:28:57.631Z,1241.45
2022-09-23T00:31:27.284Z,1243.43
2022-09-23T00:33:56.817Z,1248.97
2022-09-23T00:36:26.746Z,1246.80
2022-09-23T00:38:54.419Z,1247.75
2022-09-23T00:41:23.087Z,1244.45
2022-09-23T00:43:57.940Z,1241.95
2022-09-23T00:46:39.712Z,1241.22
2022-09-23T00:49:11.694Z,1249.18
2022-09-23T00:51:47.425Z,1252.75
2022-09-23T00:54:14.932Z,1252.20
2022-09-23T00:56:43.217Z,1251.55
2022-09-23T00:59:14.021Z,1248.32
2022-09-23T01:01:43.041Z,1243.57
2022-09-23T01:04:14.749Z,1243.88
2022-09-23T01:06:42.481Z,1240.18
2022-09-23T01:09:09.779Z,1245.15
2022-09-23T01:11:43.624Z,1246.57
2022-09-23T01:14:18.005Z,1242.82
2022-09-23T01:16:52.582Z,1240.40
2022-09-23T01:19:50.543Z,1248.68
2022-09-23T01:22:42.236Z,1249.38
2022-09-23T01:25:25.432Z,1246.40
2022-09-23T01:27:55.689Z,1245.90
2022-09-23T01:30:33.051Z,1242.60
2022-09-23T01:33:00.544Z,1243.50
2022-09-23T01:35:30.329Z,1256.10
2022-09-23T01:38:16.321Z,1252.63
2022-09-23T01:41:03.365Z,1247.93
2022-09-23T01:43:46.026Z,1250.45
2022-09-23T01:46:19.247Z,1247.20
2022-09-23T01:48:53.101Z,1255.17
2022-09-23T01:51:27.307Z,1252.70
2022-09-23T01:54:00.435Z,1248.80
2022-09-23T01:56:40.693Z,1242.97
2022-09-23T01:59:16.096Z,1244.47
2022-09-23T02:01:50.572Z,1246.07
2022-09-23T02:04:22.387Z,1245.17
2022-09-23T02:06:55.428Z,1249.55
2022-09-23T02:09:25.002Z,1255.90
2022-09-23T02:11:57.341Z,1253.80
2022-09-23T02:14:27.839Z,1257.75
2022-09-23T02:16:57.526Z,1251.63
2022-09-23T02:19:32.982Z,1250.60
2022-09-23T02:22:09.292Z,1246.60
2022-09-23T02:24:38.807Z,1251.93
2022-09-23T02:27:12.459Z,1248.60
2022-09-23T02:30:00.129Z,1255.63
2022-09-23T02:32:51.865Z,1244.97
2022-09-23T02:35:19.222Z,1244.07
2022-09-23T02:38:06.296Z,1245.53
2022-09-23T02:40:50.953Z,1242.73
2022-09-23T02:43:33.142Z,1249.40
2022-09-23T02:46:01.030Z,1244.90
2022-09-23T02:48:41.254Z,1243.10
2022-09-23T02:51:10.306Z,1246.53
2022-09-23T02:53:38.789Z,1241.03
2022-09-23T02:56:21.875Z,1249.68
2022-09-23T02:58:54.023Z,1245.38
2022-09-23T03:01:34.637Z,1246.47
2022-09-23T03:04:09.084Z,1243.57
2022-09-23T03:06:56.254Z,1242.07
2022-09-23T03:09:33.884Z,1240.47
2022-09-23T03:12:25.055Z,1238.13
2022-09-23T03:15:00.652Z,1240.13
2022-09-23T03:18:08.914Z,1242.72
2022-09-23T03:20:39.217Z,1236.53
2022-09-23T03:23:08.827Z,1239.35
2022-09-23T03:25:39.054Z,1236.50
2022-09-23T03:28:08.150Z,1235.97
2022-09-23T03:30:36.834Z,1245.60
2022-09-23T03:33:06.689Z,1243.30
2022-09-23T03:35:58.776Z,1234.05
2022-09-23T03:38:28.774Z,1232.85
2022-09-23T03:40:58.840Z,1236.40
2022-09-23T03:43:26.253Z,1235.80
2022-09-23T03:45:57.392Z,1244.47
2022-09-23T03:48:26.191Z,1240.68
2022-09-23T03:50:53.470Z,1239.87
2022-09-23T03:53:22.042Z,1239.93
2022-09-23T03:55:51.384Z,1245.40
2022-09-23T03:58:19.672Z,1240.33
2022-09-23T04:00:49.670Z,1243.50
2022-09-23T04:03:19.192Z,1238.00
2022-09-23T04:05:48.392Z,1240.10
2022-09-23T04:08:15.536Z,1243.70
2022-09-23T04:10:42.784Z,1238.22
2022-09-23T04:13:11.276Z,1238.20
2022-09-23T04:15:40.856Z,1238.60
2022-09-23T04:18:10.045Z,1239.60
2022-09-23T04:20:39.704Z,1239.63
2022-09-23T04:23:06.996Z,1244.43
2022-09-23T04:25:37.297Z,1240.65
2022-09-23T04:28:05.521Z,1251.10
2022-09-23T04:30:33.791Z,1236.57
2022-09-23T04:33:02.025Z,1242.30
2022-09-23T04:35:30.228Z,1232.07
2022-09-23T04:37:57.412Z,1231.05
2022-09-23T04:40:24.788Z,1226.38
2022-09-23T04:42:53.012Z,1231.53
2022-09-23T04:45:23.351Z,1235.00
2022-09-23T04:47:51.655Z,1242.18
2022-09-23T04:50:20.335Z,1242.50
2022-09-23T04:52:50.579Z,1238.00
2022-09-23T04:55:18.173Z,1232.75
2022-09-23T04:57:45.586Z,1236.80
2022-09-23T05:00:13.853Z,1237.70
2022-09-23T05:02:47.824Z,1236.07
2022-09-23T05:05:20.187Z,1229.93
2022-09-23T05:07:51.030Z,1232.27
2022-09-23T05:10:20.268Z,1229.55
2022-09-23T05:12:48.470Z,1228.82
2022-09-23T05:15:17.651Z,1232.15
2022-09-23T05:17:44.900Z,1239.05
2022-09-23T05:20:13.570Z,1229.82
2022-09-23T05:22:41.838Z,1233.88
2022-09-23T05:25:10.212Z,1230.50
2022-09-23T05:27:37.472Z,1230.60
2022-09-23T05:30:04.846Z,1230.93
2022-09-23T05:32:32.158Z,1237.07
2022-09-23T05:35:00.382Z,1232.80
2022-09-23T05:37:29.667Z,1228.32
2022-09-23T05:39:57.108Z,1229.60
2022-09-23T05:42:26.037Z,1235.93
2022-09-23T05:44:56.322Z,1237.18
2022-09-23T05:47:24.567Z,1230.28
2022-09-23T05:50:01.513Z,1231.75
2022-09-23T05:52:28.709Z,1229.63
2022-09-23T05:54:56.031Z,1224.97
2022-09-23T05:57:24.392Z,1227.60
2022-09-23T05:59:51.782Z,1224.72
2022-09-23T06:02:18.666Z,1229.20
2022-09-23T06:04:45.609Z,1224.25
2022-09-23T06:07:12.849Z,1223.72
2022-09-23T06:09:39.626Z,1228.50
2022-09-23T06:12:08.357Z,1221.53
2022-09-23T06:14:37.306Z,1222.97
2022-09-23T06:17:05.479Z,1226.30
2022-09-23T06:19:34.638Z,1225.47
2022-09-23T06:22:01.985Z,1222.63
2022-09-23T06:24:31.575Z,1226.35
2022-09-23T06:26:59.062Z,1233.45
2022-09-23T06:29:26.431Z,1240.18
2022-09-23T06:31:53.601Z,1225.03
2022-09-23T06:34:21.364Z,1242.97
2022-09-23T06:36:48.851Z,1226.57
2022-09-23T06:39:16.080Z,1227.57
2022-09-23T06:41:43.900Z,1226.72
2022-09-23T06:44:16.765Z,1228.30
2022-09-23T06:46:45.068Z,1236.72
2022-09-23T06:49:12.876Z,1238.43
2022-09-23T06:51:40.210Z,1229.97
2022-09-23T06:54:07.649Z,1225.53
2022-09-23T06:56:39.144Z,1242.13
2022-09-23T06:59:08.307Z,1228.15
2022-09-23T07:01:35.754Z,1229.47
2022-09-23T07:04:05.182Z,1229.20
2022-09-23T07:06:35.582Z,1231.07
2022-09-23T07:09:03.227Z,1230.37
2022-09-23T07:11:33.488Z,1232.88
2022-09-23T07:14:04.011Z,1231.18
2022-09-23T07:16:32.796Z,1229.70
2022-09-23T07:19:00.153Z,1225.28
2022-09-23T07:21:27.905Z,1231.43
2022-09-23T07:23:57.929Z,1228.63
2022-09-23T07:26:25.682Z,1224.88
2022-09-23T07:29:04.666Z,1226.10
2022-09-23T07:31:39.184Z,1225.47
2022-09-23T07:34:07.623Z,1222.88
2022-09-23T07:36:37.197Z,1221.00
2022-09-23T07:39:05.127Z,1225.97
2022-09-23T07:41:35.185Z,1229.40
2022-09-23T07:44:02.979Z,1217.43
2022-09-23T07:46:32.816Z,1224.55
2022-09-23T07:49:00.500Z,1220.20
2022-09-23T07:51:35.745Z,1219.07
2022-09-23T07:54:07.851Z,1218.38
2022-09-23T07:56:35.909Z,1229.50
2022-09-23T07:59:04.886Z,1219.70
2022-09-23T08:01:35.487Z,1219.90
2022-09-23T08:04:05.981Z,1217.30
2022-09-23T08:06:35.836Z,1216.47
2022-09-23T08:09:03.178Z,1218.70
2022-09-23T08:11:31.353Z,1224.18
2022-09-23T08:13:58.768Z,1217.18
2022-09-23T08:16:27.112Z,1219.13
2022-09-23T08:18:54.522Z,1221.43
2022-09-23T08:21:22.401Z,1214.70
2022-09-23T08:23:50.758Z,1223.70
2022-09-23T08:26:22.023Z,1216.82
2022-09-23T08:28:50.242Z,1217.07
2022-09-23T08:31:19.550Z,1228.65
2022-09-23T08:33:47.827Z,1221.50
2022-09-23T08:36:16.156Z,1211.80
2022-09-23T08:38:44.442Z,1221.95
2022-09-23T08:41:26.171Z,1216.53
2022-09-23T08:43:57.419Z,1224.68
2022-09-23T08:46:30.633Z,1222.18
2022-09-23T08:48:59.571Z,1216.68
2022-09-23T08:51:39.917Z,1216.70
2022-09-23T08:54:10.117Z,1216.70
2022-09-23T08:56:38.853Z,1219.40
2022-09-23T08:59:17.213Z,1217.25
2022-09-23T09:01:46.888Z,1220.10
2022-09-23T09:04:19.242Z,1216.90
2022-09-23T09:06:54.115Z,1218.88
2022-09-23T09:09:31.467Z,1223.97
2022-09-23T09:12:25.099Z,1223.32
2022-09-23T09:14:52.442Z,1226.10
2022-09-23T09:17:21.914Z,1224.82
2022-09-23T09:20:03.298Z,1225.45
2022-09-23T09:22:54.966Z,1238.60
2022-09-23T09:25:25.473Z,1223.90
2022-09-23T09:27:53.316Z,1221.77
2022-09-23T09:30:21.626Z,1225.28
2022-09-23T09:33:02.793Z,1224.03
2022-09-23T09:35:39.422Z,1229.05
2022-09-23T09:38:06.759Z,1229.50
2022-09-23T09:40:35.143Z,1235.47
2022-09-23T09:43:05.827Z,1238.93
2022-09-23T09:45:57.517Z,1228.32
2022-09-23T09:48:37.650Z,1227.00
2022-09-23T09:51:20.358Z,1229.38
2022-09-23T09:53:47.574Z,1226.88
2022-09-23T09:56:19.138Z,1229.50
2022-09-23T09:58:48.516Z,1231.68
2022-09-23T10:01:23.346Z,1226.07
2022-09-23T10:03:57.060Z,1224.90
2022-09-23T10:06:27.928Z,1222.78
2022-09-23T10:09:06.405Z,1228.95
2022-09-23T10:11:33.806Z,1225.30
2022-09-23T10:14:01.419Z,1223.20
2022-09-23T10:16:31.720Z,1225.77
2022-09-23T10:19:00.612Z,1227.80
2022-09-23T10:21:34.654Z,1226.85
2022-09-23T10:24:03.644Z,1226.88
2022-09-23T10:26:33.006Z,1238.47
2022-09-23T10:29:19.662Z,1228.75
2022-09-23T10:31:47.982Z,1230.30
2022-09-23T10:34:21.589Z,1229.82
2022-09-23T10:36:56.170Z,1233.07
2022-09-23T10:39:42.976Z,1234.80
2022-09-23T10:42:34.946Z,1234.37
2022-09-23T10:45:23.696Z,1230.35
2022-09-23T10:48:05.065Z,1230.63
2022-09-23T10:50:40.509Z,1227.22
2022-09-23T10:53:16.897Z,1230.13
2022-09-23T10:55:55.742Z,1229.53
2022-09-23T10:58:42.678Z,1228.28
2022-09-23T11:01:29.832Z,1230.50
2022-09-23T11:04:06.717Z,1230.90
2022-09-23T11:06:41.888Z,1231.60
2022-09-23T11:09:16.013Z,1231.30
2022-09-23T11:11:52.176Z,1231.55
2022-09-23T11:14:28.859Z,1228.75
2022-09-23T11:16:58.202Z,1232.00
2022-09-23T11:19:32.325Z,1236.07
2022-09-23T11:22:08.220Z,1229.80
2022-09-23T11:24:58.319Z,1231.40
2022-09-23T11:27:39.849Z,1231.20
2022-09-23T11:30:13.324Z,1230.73
2022-09-23T11:32:54.717Z,1226.95
2022-09-23T11:35:26.048Z,1224.22
2022-09-23T11:37:58.193Z,1220.63
2022-09-23T11:40:34.042Z,1217.80
2022-09-23T11:43:23.995Z,1218.32
2022-09-23T11:45:58.627Z,1222.70
2022-09-23T11:48:44.599Z,1227.13
2022-09-23T11:51:15.667Z,1225.55
2022-09-23T11:54:11.467Z,1223.82
2022-09-23T11:56:46.157Z,1226.33
2022-09-23T11:59:40.077Z,1226.22
2022-09-23T12:02:30.495Z,1231.47
2022-09-23T12:05:07.692Z,1233.50
2022-09-23T12:07:54.080Z,1235.00
2022-09-23T12:10:26.824Z,1237.18
2022-09-23T12:13:15.086Z,1232.37
2022-09-23T12:15:48.330Z,1236.90
2022-09-23T12:18:24.683Z,1234.47
2022-09-23T12:21:38.777Z,1231.38
2022-09-23T12:24:21.132Z,1237.18
2022-09-23T12:26:58.279Z,1238.35
2022-09-23T12:31:55.744Z,1241.03
2022-09-23T12:34:30.411Z,1240.82
2022-09-23T12:37:04.692Z,1233.80
2022-09-23T12:39:37.327Z,1233.63
2022-09-23T12:42:07.701Z,1233.57
2022-09-23T12:44:41.274Z,1230.45
2022-09-23T12:47:21.267Z,1235.10
2022-09-23T12:49:50.845Z,1229.50
2022-09-23T12:52:20.055Z,1238.43
2022-09-23T12:54:50.367Z,1233.05
2022-09-23T12:57:36.070Z,1232.28
2022-09-23T13:00:12.215Z,1230.93
2022-09-23T13:02:44.075Z,1224.30
2022-09-23T13:05:36.634Z,1231.95
2022-09-23T13:08:07.468Z,1225.35
2022-09-23T13:10:42.056Z,1226.40
2022-09-23T13:13:16.206Z,1227.63
2022-09-23T13:15:44.651Z,1228.72
2022-09-23T13:18:21.992Z,1229.28
2022-09-23T13:20:51.544Z,1228.43
2022-09-23T13:23:23.995Z,1223.85
2022-09-23T13:25:53.242Z,1223.35
2022-09-23T13:28:28.934Z,1226.32
2022-09-23T13:30:58.447Z,1230.90
2022-09-23T13:33:34.954Z,1224.47
2022-09-23T13:36:04.318Z,1228.47
2022-09-23T13:38:32.978Z,1221.43
2022-09-23T13:41:05.432Z,1229.85
2022-09-23T13:43:41.425Z,1223.47
2022-09-23T13:46:14.650Z,1222.50
2022-09-23T13:48:45.260Z,1228.37
2022-09-23T13:51:30.046Z,1226.05
2022-09-23T13:53:58.294Z,1228.15
2022-09-23T13:56:27.116Z,1227.38
2022-09-23T13:58:56.684Z,1226.10
2022-09-23T14:01:32.487Z,1226.15
2022-09-23T14:04:00.084Z,1233.45
2022-09-23T14:06:27.706Z,1229.63
2022-09-23T14:08:57.766Z,1228.63
2022-09-23T14:11:30.143Z,1225.20
2022-09-23T14:14:01.282Z,1226.65
2022-09-23T14:16:30.297Z,1229.72
2022-09-23T14:19:00.010Z,1242.00
2022-09-23T14:21:36.045Z,1229.35
2022-09-23T14:24:18.781Z,1228.20
2022-09-23T14:26:51.192Z,1218.28
2022-09-23T14:29:27.498Z,1226.55
2022-09-23T14:31:57.255Z,1227.45
2022-09-23T14:34:58.216Z,1222.63
2022-09-23T14:37:53.680Z,1219.20
2022-09-23T14:41:15.694Z,1228.22
2022-09-23T14:43:49.101Z,1223.15
2022-09-23T14:46:19.112Z,1225.40
2022-09-23T14:48:53.641Z,1225.28
2022-09-23T14:51:21.175Z,1228.65
2022-09-23T14:53:48.958Z,1226.90
2022-09-23T14:56:16.723Z,1222.72
2022-09-23T14:58:53.246Z,1220.65
2022-09-23T15:01:33.292Z,1223.77
2022-09-23T15:04:11.425Z,1225.70
2022-09-23T15:06:40.015Z,1224.55
2022-09-23T15:09:07.481Z,1222.13
2022-09-23T15:11:36.034Z,1221.88
2022-09-23T15:14:26.402Z,1223.53
2022-09-23T15:16:54.698Z,1221.25
2022-09-23T15:19:23.536Z,1223.32
2022-09-23T15:21:54.261Z,1223.00
2022-09-23T15:24:36.984Z,1220.32
2022-09-23T15:27:07.412Z,1220.37
2022-09-23T15:29:35.365Z,1223.67
2022-09-23T15:32:02.830Z,1220.38
2022-09-23T15:34:31.762Z,1223.03
2022-09-23T15:37:02.195Z,1222.32
2022-09-23T15:39:36.442Z,1222.22
2022-09-23T15:42:03.818Z,1221.75
2022-09-23T15:44:37.991Z,1221.28
2022-09-23T15:47:11.187Z,1224.43
2022-09-23T15:49:39.627Z,1223.57
2022-09-23T15:52:08.301Z,1237.60
2022-09-23T15:54:37.756Z,1222.88
2022-09-23T15:57:05.183Z,1223.18
2022-09-23T15:59:33.432Z,1229.10
2022-09-23T16:02:04.093Z,1220.20
2022-09-23T16:04:31.663Z,1226.95
2022-09-23T16:07:01.687Z,1227.85
2022-09-23T16:09:31.536Z,1223.32
2022-09-23T16:12:03.301Z,1222.35
2022-09-23T16:14:31.544Z,1224.85
2022-09-23T16:17:03.399Z,1218.07
2022-09-23T16:19:34.281Z,1218.65
2022-09-23T16:22:01.667Z,1224.80
2022-09-23T16:24:30.856Z,1220.20
2022-09-23T16:27:00.706Z,1219.72
2022-09-23T16:29:28.993Z,1224.45
2022-09-23T16:31:57.272Z,1221.18
2022-09-23T16:34:24.905Z,1220.97
2022-09-23T16:36:53.389Z,1228.45
2022-09-23T16:39:22.028Z,1225.68
2022-09-23T16:41:55.903Z,1224.03
2022-09-23T16:44:24.834Z,1224.97
2022-09-23T16:46:55.126Z,1226.38
2022-09-23T16:49:24.415Z,1222.40
2022-09-23T16:51:54.739Z,1226.00
2022-09-23T16:54:29.462Z,1221.72
2022-09-23T16:56:59.109Z,1224.55
2022-09-23T16:59:46.599Z,1226.05
2022-09-23T17:02:33.555Z,1221.70
2022-09-23T17:05:01.912Z,1220.50
2022-09-23T17:07:31.907Z,1227.80
2022-09-23T17:09:59.160Z,1222.33
2022-09-23T17:12:33.313Z,1222.57
2022-09-23T17:15:03.598Z,1220.60
2022-09-23T17:17:31.050Z,1223.57
2022-09-23T17:20:01.436Z,1224.72
2022-09-23T17:22:31.811Z,1221.97
2022-09-23T17:25:00.337Z,1225.13
2022-09-23T17:27:28.771Z,1223.47
2022-09-23T17:29:59.406Z,1222.60
2022-09-23T17:32:27.017Z,1224.50
2022-09-23T17:34:55.221Z,1220.38
2022-09-23T17:37:24.463Z,1220.70
2022-09-23T17:39:52.684Z,1226.53
2022-09-23T17:42:22.960Z,1221.30
2022-09-23T17:44:51.207Z,1222.18
2022-09-23T17:47:19.442Z,1221.40
2022-09-23T17:49:47.597Z,1223.63
2022-09-23T17:52:14.967Z,1229.57
2022-09-23T17:54:43.318Z,1225.15
2022-09-23T17:57:12.481Z,1219.45
2022-09-23T17:59:40.769Z,1226.32
2022-09-23T18:02:14.945Z,1225.25
2022-09-23T18:04:46.067Z,1224.60
2022-09-23T18:07:13.361Z,1219.40
2022-09-23T18:09:42.558Z,1225.40
2022-09-23T18:12:14.700Z,1219.72
2022-09-23T18:14:45.194Z,1226.30
2022-09-23T18:17:14.701Z,1221.10
2022-09-23T18:19:43.028Z,1227.85
2022-09-23T18:22:13.415Z,1219.13
2022-09-23T18:24:47.774Z,1225.25
2022-09-23T18:27:16.102Z,1223.32
2022-09-23T18:29:44.339Z,1222.53
2022-09-23T18:32:14.500Z,1218.93
2022-09-23T18:34:42.918Z,1222.80
2022-09-23T18:37:15.739Z,1222.78
2022-09-23T18:39:44.696Z,1224.63
2022-09-23T18:42:13.557Z,1225.50
2022-09-23T18:44:41.832Z,1220.97
2022-09-23T18:47:29.970Z,1228.73
2022-09-23T18:50:18.879Z,1227.07
2022-09-23T18:52:48.257Z,1240.85
2022-09-23T18:55:16.564Z,1231.00
2022-09-23T18:57:43.745Z,1234.57
2022-09-23T19:00:17.135Z,1233.85
2022-09-23T19:02:46.555Z,1229.90
2022-09-23T19:05:15.821Z,1229.40
2022-09-23T19:07:44.098Z,1235.35
2022-09-23T19:10:11.291Z,1231.13
2022-09-23T19:12:39.545Z,1232.70
2022-09-23T19:15:06.951Z,1228.00
2022-09-23T19:17:35.358Z,1227.45
2022-09-23T19:20:05.958Z,1225.90
2022-09-23T19:22:34.509Z,1228.63
2022-09-23T19:25:02.986Z,1222.30
2022-09-23T19:27:30.505Z,1230.67
2022-09-23T19:29:57.872Z,1224.30
2022-09-23T19:32:27.171Z,1227.00
2022-09-23T19:34:54.478Z,1222.63
2022-09-23T19:37:22.505Z,1227.17
2022-09-23T19:39:52.729Z,1218.65
2022-09-23T19:42:21.363Z,1224.38
2022-09-23T19:44:53.046Z,1223.25
2022-09-23T19:47:23.392Z,1222.15
2022-09-23T19:49:50.856Z,1222.40
2022-09-23T19:52:18.221Z,1224.78
2022-09-23T19:54:46.841Z,1223.60
2022-09-23T19:57:17.171Z,1221.03
2022-09-23T19:59:46.517Z,1226.35
2022-09-23T20:02:16.004Z,1220.07
2022-09-23T20:04:43.317Z,1225.65
2022-09-23T20:07:11.533Z,1220.45
2022-09-23T20:09:40.758Z,1224.93
2022-09-23T20:12:07.945Z,1217.72
2022-09-23T20:14:37.217Z,1219.93
2022-09-23T20:17:07.830Z,1225.32
2022-09-23T20:19:36.145Z,1219.88
2022-09-23T20:22:22.917Z,1219.90
2022-09-23T20:24:51.563Z,1220.60
2022-09-23T20:27:19.935Z,1222.80
2022-09-23T20:29:51.490Z,1220.55
2022-09-23T20:32:19.023Z,1222.93
2022-09-23T20:34:48.766Z,1227.85
2022-09-23T20:37:18.408Z,1225.20
2022-09-23T20:39:46.991Z,1233.13
2022-09-23T20:42:16.678Z,1226.45
2022-09-23T20:44:44.977Z,1224.15
2022-09-23T20:47:14.126Z,1227.00
2022-09-23T20:49:45.391Z,1228.40
2022-09-23T20:52:13.987Z,1225.85
2022-09-23T20:54:42.130Z,1227.30
2022-09-23T20:57:13.368Z,1223.40
2022-09-23T20:59:43.410Z,1218.43
2022-09-23T21:02:12.775Z,1223.03
2022-09-23T21:04:41.135Z,1218.78
2022-09-23T21:07:11.539Z,1227.85
2022-09-23T21:09:40.941Z,1223.43
2022-09-23T21:12:14.214Z,1219.13
2022-09-23T21:14:43.654Z,1220.82
2022-09-23T21:17:14.049Z,1216.40
2022-09-23T21:19:42.284Z,1216.80
2022-09-23T21:22:12.333Z,1216.78
2022-09-23T21:25:25.152Z,1218.43
2022-09-23T21:27:27.933Z,1218.72
2022-09-23T21:29:56.255Z,1213.18
2022-09-23T21:32:27.545Z,1218.80
2022-09-23T21:34:57.858Z,1222.00
2022-09-23T21:37:26.127Z,1217.18
2022-09-23T21:40:12.944Z,1218.03
2022-09-23T21:42:40.246Z,1216.33
2022-09-23T21:45:10.788Z,1217.32
2022-09-23T21:47:40.047Z,1213.82
2022-09-23T21:50:08.764Z,1217.40
2022-09-23T21:52:36.057Z,1216.72
2022-09-23T21:55:04.680Z,1212.82
2022-09-23T21:57:32.278Z,1218.45
2022-09-23T22:00:01.633Z,1219.65
2022-09-23T22:02:29.884Z,1217.47
2022-09-23T22:04:57.025Z,1215.10
2022-09-23T22:07:25.372Z,1213.30
2022-09-23T22:10:00.670Z,1222.30
2022-09-23T22:12:28.268Z,1224.60
2022-09-23T22:15:20.336Z,1228.75
2022-09-23T22:17:48.625Z,1221.25
2022-09-23T22:20:16.958Z,1219.97
2022-09-23T22:22:44.489Z,1221.75
2022-09-23T22:25:16.912Z,1217.20
2022-09-23T22:28:03.856Z,1222.05
2022-09-23T22:30:50.682Z,1219.68
2022-09-23T22:33:17.895Z,1219.43
2022-09-23T22:35:45.171Z,1216.07
2022-09-23T22:38:13.454Z,1213.65
2022-09-23T22:40:45.870Z,1220.15
2022-09-23T22:43:14.222Z,1218.95
2022-09-23T22:45:49.930Z,1221.47
2022-09-23T22:48:21.071Z,1219.70
2022-09-23T22:50:48.480Z,1217.18
2022-09-23T22:53:16.056Z,1217.65
2022-09-23T22:55:43.400Z,1213.60
2022-09-23T22:58:31.267Z,1212.03
2022-09-23T23:00:59.934Z,1216.05
2022-09-23T23:03:28.209Z,1214.70
2022-09-23T23:06:00.666Z,1216.57
2022-09-23T23:08:32.027Z,1210.55
2022-09-23T23:11:05.424Z,1219.85
2022-09-23T23:13:35.902Z,1221.97
2022-09-23T23:16:07.792Z,1218.53
2022-09-23T23:18:40.035Z,1217.80
2022-09-23T23:21:13.169Z,1213.50
2022-09-23T23:23:43.487Z,1217.63
2022-09-23T23:26:21.639Z,1213.38
2022-09-23T23:28:50.747Z,1209.18
2022-09-23T23:31:19.919Z,1216.65
2022-09-23T23:33:47.634Z,1218.43
2022-09-23T23:36:17.536Z,1215.50
2022-09-23T23:38:47.876Z,1213.05
2022-09-23T23:41:17.624Z,1211.95
2022-09-23T23:43:49.976Z,1215.18
2022-09-23T23:46:18.381Z,1218.88
2022-09-23T23:48:48.134Z,1216.43
2022-09-23T23:51:18.507Z,1218.32
2022-09-23T23:53:45.784Z,1218.00
2022-09-23T23:56:15.537Z,1219.30
2022-09-23T23:58:46.217Z,1217.57
